createdAt,value
2018-06-12T00:01:26.565Z,43.37
2018-06-12T00:03:54.532Z,43.11
2018-06-12T00:06:22.217Z,43.73
2018-06-12T00:08:49.927Z,43.50
2018-06-12T00:11:17.929Z,44.10
2018-06-12T00:13:45.859Z,44.32
2018-06-12T00:16:13.524Z,44.07
2018-06-12T00:18:41.238Z,44.18
2018-06-12T00:21:08.906Z,44.44
2018-06-12T00:23:36.559Z,44.73
2018-06-12T00:26:04.300Z,44.93
2018-06-12T00:28:32.225Z,44.22
2018-06-12T00:31:00.145Z,44.80
2018-06-12T00:33:27.847Z,44.76
2018-06-12T00:35:56.085Z,44.00
2018-06-12T00:38:23.778Z,43.90
2018-06-12T00:40:51.423Z,43.96
2018-06-12T00:43:19.373Z,44.27
2018-06-12T00:45:47.338Z,44.75
2018-06-12T00:48:14.946Z,44.45
2018-06-12T00:50:42.865Z,43.54
2018-06-12T00:53:10.981Z,43.54
2018-06-12T00:55:38.600Z,43.43
2018-06-12T00:58:06.465Z,43.38
2018-06-12T01:00:34.774Z,43.49
2018-06-12T01:03:02.385Z,43.84
2018-06-12T01:05:30.234Z,43.82
2018-06-12T01:07:58.160Z,43.83
2018-06-12T01:10:26.034Z,43.28
2018-06-12T01:12:53.672Z,43.08
2018-06-12T01:15:21.533Z,43.35
2018-06-12T01:17:49.395Z,43.75
2018-06-12T01:20:17.325Z,43.90
2018-06-12T01:22:45.238Z,43.91
2018-06-12T01:25:13.448Z,43.77
2018-06-12T01:27:41.065Z,43.43
2018-06-12T01:30:08.656Z,43.77
2018-06-12T01:32:36.269Z,43.63
2018-06-12T01:35:03.853Z,44.33
2018-06-12T01:37:31.835Z,43.72
2018-06-12T01:39:59.716Z,44.53
2018-06-12T01:42:27.340Z,44.18
2018-06-12T01:44:55.079Z,43.96
2018-06-12T01:47:23.012Z,43.86
2018-06-12T01:49:50.614Z,43.75
2018-06-12T01:52:18.385Z,43.58
2018-06-12T01:54:46.342Z,43.56
2018-06-12T01:57:13.956Z,43.19
2018-06-12T01:59:42.212Z,44.11
2018-06-12T02:02:10.283Z,43.22
2018-06-12T02:04:38.149Z,43.15
2018-06-12T02:07:06.320Z,43.77
2018-06-12T02:09:34.426Z,42.95
2018-06-12T02:12:02.289Z,43.33
2018-06-12T02:14:29.891Z,43.01
2018-06-12T02:16:57.833Z,43.48
2018-06-12T02:19:25.796Z,43.09
2018-06-12T02:21:53.720Z,43.83
2018-06-12T02:24:21.362Z,43.14
2018-06-12T02:26:49.274Z,43.53
2018-06-12T02:29:16.953Z,43.22
2018-06-12T02:31:44.544Z,43.01
2018-06-12T02:34:12.154Z,43.03
2018-06-12T02:36:40.111Z,42.96
2018-06-12T02:39:08.373Z,43.45
2018-06-12T02:41:35.980Z,43.11
2018-06-12T02:44:03.908Z,43.16
2018-06-12T02:46:31.501Z,43.15
2018-06-12T02:48:59.383Z,43.24
2018-06-12T02:51:28.165Z,42.95
2018-06-12T02:53:56.105Z,42.93
2018-06-12T02:56:23.731Z,43.12
2018-06-12T02:58:52.177Z,43.35
2018-06-12T03:01:20.072Z,43.41
2018-06-12T03:03:47.970Z,42.85
2018-06-12T03:06:16.448Z,42.74
2018-06-12T03:08:44.195Z,43.41
2018-06-12T03:11:11.810Z,43.07
2018-06-12T03:13:39.428Z,43.26
2018-06-12T03:16:07.331Z,44.32
2018-06-12T03:18:35.617Z,43.88
2018-06-12T03:21:03.585Z,43.97
2018-06-12T03:23:31.173Z,44.35
2018-06-12T03:25:59.761Z,44.36
2018-06-12T03:28:27.785Z,44.51
2018-06-12T03:30:55.814Z,44.76
2018-06-12T03:33:23.701Z,43.76
2018-06-12T03:35:51.616Z,44.29
2018-06-12T03:38:19.234Z,44.51
2018-06-12T03:40:47.533Z,44.37
2018-06-12T03:43:15.208Z,44.16
2018-06-12T03:45:43.142Z,43.67
2018-06-12T03:48:11.613Z,44.65
2018-06-12T03:50:39.280Z,44.56
2018-06-12T03:53:06.885Z,44.06
2018-06-12T03:55:34.510Z,44.82
2018-06-12T03:58:02.717Z,44.77
2018-06-12T04:00:30.693Z,44.45
2018-06-12T04:02:58.276Z,45.03
2018-06-12T04:05:26.195Z,45.31
2018-06-12T04:07:53.912Z,45.15
2018-06-12T04:10:21.807Z,44.72
2018-06-12T04:12:49.769Z,45.59
2018-06-12T04:15:18.076Z,44.72
2018-06-12T04:17:45.693Z,45.46
2018-06-12T04:20:13.318Z,45.00
2018-06-12T04:22:41.948Z,44.65
2018-06-12T04:25:09.928Z,45.29
2018-06-12T04:27:37.544Z,44.75
2018-06-12T04:30:05.528Z,44.88
2018-06-12T04:32:33.155Z,45.38
2018-06-12T04:35:00.806Z,45.05
2018-06-12T04:37:28.742Z,44.75
2018-06-12T04:39:56.452Z,45.36
2018-06-12T04:42:24.062Z,44.70
2018-06-12T04:44:51.731Z,44.86
2018-06-12T04:47:19.640Z,45.47
2018-06-12T04:49:47.266Z,45.05
2018-06-12T04:52:15.257Z,45.28
2018-06-12T04:54:43.224Z,45.99
2018-06-12T04:57:11.365Z,45.73
2018-06-12T04:59:39.254Z,45.65
2018-06-12T05:02:07.399Z,46.43
2018-06-12T05:04:35.008Z,47.07
2018-06-12T05:07:03.131Z,47.45
2018-06-12T05:09:30.761Z,48.76
2018-06-12T05:11:58.419Z,49.58
2018-06-12T05:14:26.069Z,48.83
2018-06-12T05:16:54.043Z,48.67
2018-06-12T05:19:21.987Z,48.43
2018-06-12T05:21:49.643Z,48.51
2018-06-12T05:24:17.556Z,47.49
2018-06-12T05:26:46.111Z,47.69
2018-06-12T05:29:13.767Z,47.21
2018-06-12T05:31:41.700Z,47.74
2018-06-12T05:34:09.740Z,47.15
2018-06-12T05:36:37.365Z,47.16
2018-06-12T05:39:08.569Z,47.48
2018-06-12T05:41:37.163Z,47.59
2018-06-12T05:44:04.822Z,47.55
2018-06-12T05:46:33.188Z,47.45
2018-06-12T05:49:01.009Z,46.84
2018-06-12T05:51:28.927Z,47.37
2018-06-12T05:53:56.537Z,46.78
2018-06-12T05:56:24.261Z,47.31
2018-06-12T05:58:52.303Z,46.84
2018-06-12T06:01:20.620Z,46.85
2018-06-12T06:03:48.583Z,46.97
2018-06-12T06:06:16.371Z,47.05
2018-06-12T06:08:44.242Z,46.44
2018-06-12T06:11:12.160Z,46.99
2018-06-12T06:13:39.799Z,46.47
2018-06-12T06:16:07.705Z,46.12
2018-06-12T06:18:35.404Z,46.71
2018-06-12T06:21:05.544Z,46.73
2018-06-12T06:23:33.225Z,46.69
2018-06-12T06:26:00.877Z,46.38
2018-06-12T06:28:28.811Z,46.10
2018-06-12T06:30:56.493Z,45.48
2018-06-12T06:33:24.115Z,45.71
2018-06-12T06:35:52.132Z,45.56
2018-06-12T06:38:20.063Z,45.38
2018-06-12T06:40:47.733Z,45.76
2018-06-12T06:43:15.416Z,45.96
2018-06-12T06:45:43.049Z,45.15
2018-06-12T06:48:10.933Z,45.00
2018-06-12T06:50:38.864Z,44.95
2018-06-12T06:53:06.489Z,45.51
2018-06-12T06:55:34.168Z,44.71
2018-06-12T06:58:01.790Z,44.53
2018-06-12T07:00:29.433Z,44.27
2018-06-12T07:02:57.074Z,44.13
2018-06-12T07:05:24.681Z,44.24
2018-06-12T07:07:52.333Z,43.40
2018-06-12T07:10:19.954Z,44.10
2018-06-12T07:12:47.611Z,43.25
2018-06-12T07:15:15.232Z,43.48
2018-06-12T07:17:42.916Z,43.20
2018-06-12T07:20:10.555Z,43.05
2018-06-12T07:22:38.217Z,43.12
2018-06-12T07:25:05.861Z,42.79
2018-06-12T07:27:33.481Z,43.52
2018-06-12T07:30:01.107Z,43.46
2018-06-12T07:32:29.093Z,42.65
2018-06-12T07:34:57.463Z,42.75
2018-06-12T07:37:26.039Z,42.43
2018-06-12T07:39:55.625Z,42.49
2018-06-12T07:42:24.806Z,43.14
2018-06-12T07:44:53.513Z,42.71
2018-06-12T07:47:26.242Z,43.19
2018-06-12T07:49:57.768Z,43.06
2018-06-12T07:52:26.406Z,42.62
2018-06-12T07:54:54.733Z,42.62
2018-06-12T07:57:23.124Z,42.45
2018-06-12T07:59:51.465Z,43.15
2018-06-12T08:02:19.990Z,42.50
2018-06-12T08:04:48.203Z,42.60
2018-06-12T08:07:16.483Z,42.59
2018-06-12T08:09:44.704Z,42.44
2018-06-12T08:12:13.104Z,43.02
2018-06-12T08:14:42.866Z,43.01
2018-06-12T08:17:11.536Z,42.69
2018-06-12T08:19:39.924Z,42.90
2018-06-12T08:22:08.410Z,43.02
2018-06-12T08:24:36.853Z,42.44
2018-06-12T08:27:05.112Z,42.54
2018-06-12T08:29:35.321Z,42.63
2018-06-12T08:32:05.273Z,42.12
2018-06-12T08:34:33.731Z,42.54
2018-06-12T08:37:01.866Z,42.27
2018-06-12T08:39:30.073Z,41.57
2018-06-12T08:41:58.511Z,42.17
2018-06-12T08:44:26.892Z,42.23
2018-06-12T08:46:55.505Z,41.61
2018-06-12T08:49:23.931Z,42.10
2018-06-12T08:51:52.331Z,41.66
2018-06-12T08:54:20.671Z,41.57
2018-06-12T08:56:49.501Z,42.11
2018-06-12T08:59:17.908Z,41.62
2018-06-12T09:01:47.687Z,41.52
2018-06-12T09:04:15.943Z,42.04
2018-06-12T09:06:44.191Z,41.96
2018-06-12T09:09:12.565Z,41.53
2018-06-12T09:11:40.261Z,41.67
2018-06-12T09:14:07.893Z,42.60
2018-06-12T09:16:35.813Z,42.06
2018-06-12T09:19:03.418Z,41.33
2018-06-12T09:21:31.410Z,42.06
2018-06-12T09:23:59.089Z,41.84
2018-06-12T09:26:26.830Z,42.06
2018-06-12T09:28:55.351Z,41.33
2018-06-12T09:31:23.129Z,41.30
2018-06-12T09:33:51.028Z,41.19
2018-06-12T09:36:24.391Z,41.61
2018-06-12T09:38:52.529Z,41.20
2018-06-12T09:41:20.433Z,41.06
2018-06-12T09:43:48.044Z,40.83
2018-06-12T09:46:15.830Z,41.26
2018-06-12T09:48:43.467Z,41.21
2018-06-12T09:51:11.107Z,41.43
2018-06-12T09:53:39.149Z,41.39
2018-06-12T09:56:06.785Z,41.00
2018-06-12T09:58:34.396Z,41.56
2018-06-12T10:01:07.608Z,40.88
2018-06-12T10:03:35.254Z,41.03
2018-06-12T10:06:04.021Z,41.62
2018-06-12T10:08:31.708Z,40.85
2018-06-12T10:10:59.386Z,40.88
2018-06-12T10:13:27.060Z,41.21
2018-06-12T10:15:54.958Z,41.12
2018-06-12T10:18:22.649Z,40.98
2018-06-12T10:20:50.293Z,41.08
2018-06-12T10:23:17.884Z,40.98
2018-06-12T10:25:45.720Z,40.90
2018-06-12T10:28:13.735Z,40.79
2018-06-12T10:30:41.389Z,41.47
2018-06-12T10:33:09.175Z,41.05
2018-06-12T10:35:37.420Z,41.39
2018-06-12T10:38:05.150Z,41.09
2018-06-12T10:40:32.826Z,41.48
2018-06-12T10:43:00.436Z,41.61
2018-06-12T10:45:28.607Z,41.76
2018-06-12T10:47:56.881Z,41.40
2018-06-12T10:50:24.634Z,41.38
2018-06-12T10:52:52.249Z,41.82
2018-06-12T10:55:19.872Z,42.46
2018-06-12T10:57:47.507Z,43.06
2018-06-12T11:00:15.471Z,42.44
2018-06-12T11:02:43.623Z,43.23
2018-06-12T11:05:11.269Z,42.71
2018-06-12T11:07:39.169Z,43.41
2018-06-12T11:10:06.821Z,42.69
2018-06-12T11:12:35.305Z,42.86
2018-06-12T11:15:02.928Z,42.38
2018-06-12T11:17:30.873Z,42.76
2018-06-12T11:19:58.525Z,41.97
2018-06-12T11:22:26.139Z,42.67
2018-06-12T11:24:53.903Z,42.41
2018-06-12T11:27:22.081Z,42.82
2018-06-12T11:29:49.965Z,42.34
2018-06-12T11:32:17.616Z,42.32
2018-06-12T11:34:45.706Z,42.04
2018-06-12T11:37:13.550Z,43.05
2018-06-12T11:39:41.738Z,43.19
2018-06-12T11:42:09.913Z,42.66
2018-06-12T11:44:37.909Z,42.75
2018-06-12T11:47:05.529Z,42.38
2018-06-12T11:49:33.466Z,43.30
2018-06-12T11:52:01.576Z,42.74
2018-06-12T11:54:29.169Z,42.93
2018-06-12T11:56:57.248Z,43.78
2018-06-12T11:59:25.029Z,43.29
2018-06-12T12:01:53.027Z,44.16
2018-06-12T12:04:20.919Z,43.82
2018-06-12T12:06:48.542Z,43.90
2018-06-12T12:09:16.211Z,44.50
2018-06-12T12:11:44.057Z,44.43
2018-06-12T12:14:11.646Z,43.80
2018-06-12T12:16:39.681Z,44.11
2018-06-12T12:19:07.325Z,44.06
2018-06-12T12:21:35.205Z,43.71
2018-06-12T12:24:02.862Z,43.15
2018-06-12T12:26:30.792Z,43.15
2018-06-12T12:28:58.723Z,43.71
2018-06-12T12:31:26.373Z,43.71
2018-06-12T12:33:54.481Z,43.63
2018-06-12T12:36:22.632Z,43.41
2018-06-12T12:38:50.361Z,42.81
2018-06-12T12:41:17.960Z,43.44
2018-06-12T12:43:46.166Z,43.27
2018-06-12T12:46:14.342Z,42.62
2018-06-12T12:48:42.335Z,42.65
2018-06-12T12:51:10.300Z,42.78
2018-06-12T12:53:37.927Z,43.62
2018-06-12T12:56:05.705Z,44.38
2018-06-12T12:58:33.568Z,44.30
2018-06-12T13:01:01.185Z,43.70
2018-06-12T13:03:29.510Z,43.88
2018-06-12T13:05:57.444Z,43.80
2018-06-12T13:08:25.080Z,44.52
2018-06-12T13:10:52.746Z,43.73
2018-06-12T13:13:20.609Z,44.43
2018-06-12T13:15:48.303Z,44.20
2018-06-12T13:18:15.946Z,44.00
2018-06-12T13:20:43.933Z,44.00
2018-06-12T13:23:11.788Z,44.00
2018-06-12T13:25:39.381Z,44.08
2018-06-12T13:28:06.997Z,44.88
2018-06-12T13:30:35.378Z,44.67
2018-06-12T13:33:03.543Z,44.69
2018-06-12T13:35:31.164Z,45.25
2018-06-12T13:37:59.235Z,44.93
2018-06-12T13:40:27.125Z,45.54
2018-06-12T13:42:54.768Z,44.84
2018-06-12T13:45:23.137Z,45.37
2018-06-12T13:47:50.995Z,46.05
2018-06-12T13:50:19.166Z,45.30
2018-06-12T13:52:47.251Z,45.95
2018-06-12T13:55:14.857Z,45.34
2018-06-12T13:57:42.819Z,45.11
2018-06-12T14:00:10.985Z,45.29
2018-06-12T14:02:39.228Z,45.35
2018-06-12T14:05:07.328Z,44.63
2018-06-12T14:07:34.961Z,44.77
2018-06-12T14:10:02.599Z,45.28
2018-06-12T14:12:30.591Z,45.39
2018-06-12T14:14:58.663Z,44.72
2018-06-12T14:17:26.264Z,45.59
2018-06-12T14:19:54.435Z,45.09
2018-06-12T14:22:22.079Z,44.79
2018-06-12T14:24:50.394Z,45.02
2018-06-12T14:27:18.518Z,45.36
2018-06-12T14:29:46.242Z,44.58
2018-06-12T14:32:14.378Z,44.63
2018-06-12T14:34:42.018Z,44.63
2018-06-12T14:37:09.650Z,44.28
2018-06-12T14:39:37.309Z,43.81
2018-06-12T14:42:05.011Z,44.00
2018-06-12T14:44:32.801Z,43.84
2018-06-12T14:47:01.315Z,44.43
2018-06-12T14:49:29.347Z,43.13
2018-06-12T14:51:57.008Z,44.28
2018-06-12T14:54:24.901Z,43.58
2018-06-12T14:56:53.044Z,43.79
2018-06-12T14:59:20.669Z,43.80
2018-06-12T15:01:48.544Z,43.84
2018-06-12T15:04:16.295Z,44.73
2018-06-12T15:06:44.485Z,43.96
2018-06-12T15:09:12.202Z,43.98
2018-06-12T15:11:40.158Z,43.64
2018-06-12T15:14:07.801Z,43.53
2018-06-12T15:16:35.696Z,43.97
2018-06-12T15:19:03.343Z,43.46
2018-06-12T15:21:31.686Z,43.64
2018-06-12T15:23:59.321Z,44.05
2018-06-12T15:26:27.652Z,43.74
2018-06-12T15:28:55.282Z,44.74
2018-06-12T15:31:22.928Z,45.01
2018-06-12T15:33:50.582Z,44.52
2018-06-12T15:36:18.193Z,45.21
2018-06-12T15:38:46.006Z,44.52
2018-06-12T15:41:13.689Z,45.23
2018-06-12T15:43:41.544Z,44.61
2018-06-12T15:46:09.177Z,44.56
2018-06-12T15:48:36.805Z,44.84
2018-06-12T15:51:04.491Z,44.96
2018-06-12T15:53:32.105Z,45.01
2018-06-12T15:56:00.546Z,45.85
2018-06-12T15:58:28.441Z,45.25
2018-06-12T16:00:56.618Z,45.34
2018-06-12T16:03:24.454Z,46.15
2018-06-12T16:05:52.180Z,45.62
2018-06-12T16:08:20.174Z,45.61
2018-06-12T16:10:48.657Z,46.32
2018-06-12T16:13:16.320Z,45.97
2018-06-12T16:15:43.942Z,46.35
2018-06-12T16:18:11.729Z,46.51
2018-06-12T16:20:39.614Z,46.72
2018-06-12T16:23:07.505Z,46.91
2018-06-12T16:25:35.180Z,46.93
2018-06-12T16:28:02.805Z,46.31
2018-06-12T16:30:30.740Z,46.34
2018-06-12T16:32:58.341Z,47.26
2018-06-12T16:35:26.282Z,46.88
2018-06-12T16:37:53.870Z,46.75
2018-06-12T16:40:23.595Z,47.15
2018-06-12T16:42:51.808Z,49.84
2018-06-12T16:45:19.725Z,49.63
2018-06-12T16:47:47.372Z,49.07
2018-06-12T16:50:15.005Z,48.31
2018-06-12T16:52:42.857Z,48.47
2018-06-12T16:55:10.541Z,47.96
2018-06-12T16:57:38.166Z,48.22
2018-06-12T17:00:05.849Z,47.60
2018-06-12T17:02:34.466Z,47.54
2018-06-12T17:05:02.455Z,47.55
2018-06-12T17:07:30.448Z,47.75
2018-06-12T17:09:58.156Z,47.56
2018-06-12T17:12:25.777Z,47.46
2018-06-12T17:14:53.582Z,47.39
2018-06-12T17:17:21.218Z,47.54
2018-06-12T17:19:49.137Z,47.98
2018-06-12T17:22:16.866Z,47.92
2018-06-12T17:24:44.820Z,48.13
2018-06-12T17:27:12.527Z,47.81
2018-06-12T17:29:40.225Z,47.93
2018-06-12T17:32:07.893Z,47.17
2018-06-12T17:34:35.539Z,47.21
2018-06-12T17:37:03.499Z,47.50
2018-06-12T17:39:31.097Z,47.81
2018-06-12T17:41:59.157Z,47.55
2018-06-12T17:44:28.443Z,47.75
2018-06-12T17:46:56.410Z,47.00
2018-06-12T17:49:24.639Z,47.13
2018-06-12T17:51:52.498Z,47.29
2018-06-12T17:54:20.713Z,47.32
2018-06-12T17:56:48.552Z,47.43
2018-06-12T17:59:16.230Z,47.15
2018-06-12T18:01:44.189Z,47.75
2018-06-12T18:04:12.162Z,47.62
2018-06-12T18:06:40.053Z,47.21
2018-06-12T18:09:07.797Z,47.32
2018-06-12T18:11:35.489Z,47.67
2018-06-12T18:14:03.440Z,47.66
2018-06-12T18:16:31.327Z,47.33
2018-06-12T18:18:59.131Z,47.82
2018-06-12T18:21:27.236Z,47.50
2018-06-12T18:23:55.478Z,47.51
2018-06-12T18:26:23.401Z,46.79
2018-06-12T18:28:51.038Z,46.94
2018-06-12T18:31:19.002Z,46.71
2018-06-12T18:33:46.670Z,47.70
2018-06-12T18:36:14.520Z,47.81
2018-06-12T18:38:42.590Z,47.45
2018-06-12T18:41:10.495Z,46.88
2018-06-12T18:43:38.397Z,46.99
2018-06-12T18:46:06.053Z,47.39
2018-06-12T18:48:33.750Z,47.55
2018-06-12T18:51:01.494Z,46.81
2018-06-12T18:53:29.213Z,46.89
2018-06-12T18:55:57.219Z,47.46
2018-06-12T18:58:24.867Z,46.71
2018-06-12T19:00:53.265Z,47.09
2018-06-12T19:03:21.279Z,47.06
2018-06-12T19:05:48.969Z,46.87
2018-06-12T19:08:16.722Z,47.48
2018-06-12T19:10:44.595Z,47.19
2018-06-12T19:13:12.489Z,47.22
2018-06-12T19:15:40.241Z,47.04
2018-06-12T19:18:07.991Z,46.92
2018-06-12T19:20:35.621Z,47.09
2018-06-12T19:23:03.612Z,46.79
2018-06-12T19:25:31.692Z,47.42
2018-06-12T19:27:59.672Z,47.59
2018-06-12T19:30:28.036Z,46.92
2018-06-12T19:32:55.794Z,46.75
2018-06-12T19:35:23.949Z,47.60
2018-06-12T19:37:51.743Z,47.14
2018-06-12T19:40:19.642Z,47.69
2018-06-12T19:42:47.740Z,47.19
2018-06-12T19:45:15.992Z,47.53
2018-06-12T19:47:44.126Z,47.26
2018-06-12T19:50:12.147Z,47.40
2018-06-12T19:52:39.964Z,47.45
2018-06-12T19:55:07.842Z,46.87
2018-06-12T19:57:36.353Z,47.54
2018-06-12T20:00:04.123Z,47.53
2018-06-12T20:02:32.149Z,47.59
2018-06-12T20:05:00.048Z,47.76
2018-06-12T20:07:28.055Z,47.64
2018-06-12T20:09:55.885Z,48.32
2018-06-12T20:12:23.654Z,48.38
2018-06-12T20:14:51.313Z,48.32
2018-06-12T20:17:19.584Z,47.72
2018-06-12T20:19:47.694Z,47.99
2018-06-12T20:22:15.447Z,47.90
2018-06-12T20:24:43.353Z,48.46
2018-06-12T20:27:11.424Z,47.73
2018-06-12T20:29:39.445Z,47.86
2018-06-12T20:32:07.112Z,48.08
2018-06-12T20:34:35.315Z,47.73
2018-06-12T20:37:03.285Z,47.76
2018-06-12T20:39:31.265Z,47.96
2018-06-12T20:41:59.380Z,48.82
2018-06-12T20:44:27.388Z,48.70
2018-06-12T20:46:55.270Z,48.62
2018-06-12T20:49:23.479Z,48.73
2018-06-12T20:51:51.407Z,48.99
2018-06-12T20:54:19.043Z,47.97
2018-06-12T20:56:46.707Z,48.56
2018-06-12T20:59:14.424Z,48.66
2018-06-12T21:01:42.273Z,48.61
2018-06-12T21:04:09.941Z,48.43
2018-06-12T21:06:37.555Z,48.87
2018-06-12T21:09:05.985Z,47.91
2018-06-12T21:11:33.705Z,48.53
2018-06-12T21:14:01.490Z,47.81
2018-06-12T21:16:29.365Z,48.53
2018-06-12T21:18:57.189Z,48.05
2018-06-12T21:21:25.554Z,47.78
2018-06-12T21:23:53.325Z,48.02
2018-06-12T21:26:20.943Z,47.99
2018-06-12T21:28:50.865Z,48.31
2018-06-12T21:31:19.044Z,48.45
2018-06-12T21:33:46.669Z,48.51
2018-06-12T21:36:14.665Z,48.66
2018-06-12T21:38:42.342Z,48.66
2018-06-12T21:41:10.344Z,48.20
2018-06-12T21:43:38.654Z,48.20
2018-06-12T21:46:06.605Z,48.47
2018-06-12T21:48:34.262Z,47.78
2018-06-12T21:51:02.069Z,47.98
2018-06-12T21:53:30.128Z,48.74
2018-06-12T21:55:57.919Z,48.26
2018-06-12T21:58:25.873Z,48.61
2018-06-12T22:00:53.827Z,48.55
2018-06-12T22:03:21.801Z,48.11
2018-06-12T22:05:49.774Z,48.46
2018-06-12T22:08:17.550Z,48.47
2018-06-12T22:10:45.327Z,48.75
2018-06-12T22:13:13.327Z,48.76
2018-06-12T22:15:41.249Z,48.98
2018-06-12T22:18:09.353Z,48.89
2018-06-12T22:20:37.645Z,48.29
2018-06-12T22:23:05.557Z,48.16
2018-06-12T22:25:33.182Z,48.29
2018-06-12T22:28:01.108Z,48.23
2018-06-12T22:30:28.992Z,48.60
2018-06-12T22:32:56.921Z,48.93
2018-06-12T22:35:24.889Z,48.41
2018-06-12T22:37:52.562Z,48.78
2018-06-12T22:40:20.625Z,48.07
2018-06-12T22:42:48.245Z,48.32
2018-06-12T22:45:15.880Z,48.63
2018-06-12T22:47:44.230Z,48.44
2018-06-12T22:50:11.841Z,48.22
2018-06-12T22:52:39.740Z,48.15
2018-06-12T22:55:07.786Z,48.83
2018-06-12T22:57:35.421Z,48.27
2018-06-12T23:00:03.359Z,48.60
2018-06-12T23:02:31.121Z,48.34
2018-06-12T23:04:58.741Z,48.94
2018-06-12T23:07:26.706Z,48.94
2018-06-12T23:09:54.374Z,48.78
2018-06-12T23:12:22.700Z,49.28
2018-06-12T23:14:50.322Z,48.75
2018-06-12T23:17:17.961Z,49.48
2018-06-12T23:19:57.063Z,49.39
2018-06-12T23:22:24.698Z,49.35
2018-06-12T23:24:52.481Z,49.26
2018-06-12T23:27:20.405Z,49.57
2018-06-12T23:29:48.093Z,49.71
2018-06-12T23:32:16.045Z,49.74
2018-06-12T23:34:44.154Z,49.28
2018-06-12T23:37:12.114Z,49.94
2018-06-12T23:39:40.058Z,49.72
2018-06-12T23:42:07.778Z,49.67
2018-06-12T23:44:36.251Z,49.94
2018-06-12T23:47:04.181Z,50.15
2018-06-12T23:49:32.093Z,50.37
2018-06-12T23:51:59.724Z,50.50
2018-06-12T23:54:27.957Z,50.79
2018-06-12T23:56:55.924Z,50.79
2018-06-12T23:59:23.559Z,50.90
